Time;durP1;ratioP1;P1;durP2;ratioP2;P2;SDS_P1;SDS_P2;PMS_P1;PMS_P2;Temp;Humidity;BMP_temperature;BMP_pressure;BME280_temperature;BME280_humidity;BME280_pressure;Samples;Min_cycle;Max_cycle;Signal;HPM_P1;HPM_P2
2021/10/23 00:00:10;;;;;;;;;10.50;10.50;;;;;-147.17;100.00;49446.47;5070040;28;51184;-81
2021/10/23 00:02:35;;;;;;;;;12.25;11.00;;;;;-147.17;100.00;49436.63;5057354;28;51210;-78
2021/10/23 00:05:01;;;;;;;;;6.75;6.75;;;;;-147.17;100.00;49399.22;5061452;28;51483;-78
2021/10/23 00:07:26;;;;;;;;;10.75;8.00;;;;;-147.17;100.00;49438.59;5060324;28;51211;-78
2021/10/23 00:09:52;;;;;;;;;8.00;8.00;;;;;-147.17;100.00;49462.19;5075554;28;51955;-77
2021/10/23 00:12:17;;;;;;;;;11.50;11.00;;;;;-147.17;100.00;49470.06;5057851;28;51023;-77
2021/10/23 00:14:42;;;;;;;;;8.00;7.00;;;;;-147.17;100.00;49452.34;5060178;28;50885;-76
2021/10/23 00:17:08;;;;;;;;;6.75;6.00;;;;;-147.17;100.00;49397.25;5039067;28;51060;-79
2021/10/23 00:19:34;;;;;;;;;9.67;8.67;;;;;-147.17;100.00;49403.16;5064275;28;51983;-78
2021/10/23 00:21:59;;;;;;;;;14.75;13.25;;;;;-147.17;100.00;49391.34;5057181;28;50911;-73
2021/10/23 00:24:25;;;;;;;;;9.00;7.00;;;;;-147.17;100.00;49438.59;5057862;28;51095;-75
2021/10/23 00:26:51;;;;;;;;;11.00;9.00;;;;;-147.17;100.00;49426.78;5068247;28;51051;-79
2021/10/23 00:29:17;;;;;;;;;11.75;11.75;;;;;-147.17;100.00;49442.53;5070817;28;51743;-74
2021/10/23 00:31:42;;;;;;;;;9.75;8.00;;;;;-147.17;100.00;49387.41;5064448;28;51475;-73
2021/10/23 00:34:08;;;;;;;;;7.25;7.25;;;;;-147.17;100.00;49413.00;5057103;28;51035;-60
2021/10/23 00:36:33;;;;;;;;;10.50;10.00;;;;;-147.17;100.00;49395.28;5043049;28;51104;-61
2021/10/23 00:38:59;;;;;;;;;9.25;8.00;;;;;-147.17;100.00;49383.47;5074687;28;51774;-63
2021/10/23 00:41:24;;;;;;;;;10.50;10.00;;;;;-147.17;100.00;49401.19;5054788;28;50999;-63
2021/10/23 00:43:50;;;;;;;;;11.00;8.25;;;;;-147.17;100.00;49377.56;5055229;28;51160;-63
2021/10/23 00:46:16;;;;;;;;;10.50;8.50;;;;;-147.17;100.00;49353.97;5060503;28;51354;-63
2021/10/23 00:48:42;;;;;;;;;10.50;8.25;;;;;-147.17;100.00;49352.00;5074204;28;52861;-63
2021/10/23 00:51:10;;;;;;;;;10.50;8.00;;;;;-147.17;100.00;49371.66;5075329;28;50977;-63
2021/10/23 00:53:35;;;;;;;;;10.75;9.50;;;;;-147.17;100.00;49385.44;5059832;28;51210;-62
2021/10/23 00:56:02;;;;;;;;;8.00;8.00;;;;;-147.17;100.00;49379.53;5068116;28;51272;-63
2021/10/23 00:58:28;;;;;;;;;7.00;6.33;;;;;-147.17;100.00;49367.72;5037150;28;53239;-60
2021/10/23 01:00:53;;;;;;;;;8.00;6.75;;;;;-147.17;100.00;49330.34;5057384;28;51142;-60
2021/10/23 01:03:19;;;;;;;;;10.25;9.00;;;;;-147.17;100.00;49353.97;5061339;28;51128;-61
2021/10/23 01:05:44;;;;;;;;;8.00;7.50;;;;;-147.17;100.00;49344.13;5054440;28;50951;-61
2021/10/23 01:08:10;;;;;;;;;8.00;7.00;;;;;-147.17;100.00;49383.47;5036385;28;52656;-62
2021/10/23 01:10:35;;;;;;;;;8.00;7.00;;;;;-147.17;100.00;49342.16;5054601;28;51095;-61
2021/10/23 01:13:01;;;;;;;;;11.33;10.00;;;;;-147.17;100.00;49352.00;5054684;28;51243;-62
2021/10/23 01:15:31;;;;;;;;;7.33;7.33;;;;;-147.17;100.00;49350.03;5054696;28;51315;-61
2021/10/23 01:17:58;;;;;;;;;6.67;6.00;;;;;-147.17;100.00;49350.03;5066816;28;51947;-62
2021/10/23 01:20:25;;;;;;;;;12.00;9.67;;;;;-147.17;100.00;49336.25;5069868;28;50966;-61
2021/10/23 01:22:51;;;;;;;;;6.50;6.25;;;;;-147.17;100.00;49355.94;5051480;28;51054;-62
2021/10/23 01:25:18;;;;;;;;;7.50;7.00;;;;;-147.17;100.00;49336.25;5074743;28;51141;-62
2021/10/23 01:27:44;;;;;;;;;5.33;5.33;;;;;-147.17;100.00;49328.38;5074264;28;52723;-62
2021/10/23 01:30:11;;;;;;;;;16.00;12.50;;;;;-147.17;100.00;49312.63;5057925;28;51061;-62
2021/10/23 01:32:37;;;;;;;;;11.50;7.00;;;;;-147.17;100.00;49320.50;5067824;28;51225;-62
2021/10/23 01:35:04;;;;;;;;;7.50;6.25;;;;;-147.17;100.00;49322.47;5053482;28;51315;-61
2021/10/23 01:37:44;;;;;;;;;7.25;7.00;;;;;-147.17;100.00;49316.56;5046401;28;51098;-61
2021/10/23 01:40:13;;;;;;;;;7.00;7.00;;;;;-147.17;100.00;49304.75;5059225;28;51196;-60
2021/10/23 01:42:39;;;;;;;;;7.00;6.75;;;;;-147.17;100.00;49359.84;5060274;28;51078;-62
2021/10/23 01:45:06;;;;;;;;;6.75;6.00;;;;;-147.17;100.00;49336.25;5053841;28;50904;-63
2021/10/23 01:47:31;;;;;;;;;5.25;5.00;;;;;-147.17;100.00;49312.63;5066674;28;53049;-64
2021/10/23 01:49:57;;;;;;;;;5.00;5.00;;;;;-147.17;100.00;49281.13;5054480;28;51010;-64
2021/10/23 01:52:22;;;;;;;;;7.00;6.50;;;;;-147.17;100.00;49285.06;5059609;28;51547;-59
2021/10/23 01:54:48;;;;;;;;;7.75;7.00;;;;;-147.17;100.00;49338.22;5059996;28;51295;-62
2021/10/23 01:57:14;;;;;;;;;8.00;7.00;;;;;-147.17;100.00;49310.66;5054543;28;52652;-62
2021/10/23 01:59:39;;;;;;;;;6.00;5.33;;;;;-147.17;100.00;49296.88;5073959;28;50954;-62
2021/10/23 02:02:05;;;;;;;;;4.00;4.00;;;;;-147.17;100.00;49283.09;5070137;28;51354;-63
2021/10/23 02:04:30;;;;;;;;;5.00;4.67;;;;;-147.17;100.00;49273.25;5053769;28;51329;-64
2021/10/23 02:06:55;;;;;;;;;7.67;7.00;;;;;-147.17;100.00;49287.03;5065207;28;51732;-64
2021/10/23 02:09:21;;;;;;;;;4.67;4.67;;;;;-147.17;100.00;49273.25;5068204;28;51094;-58
2021/10/23 02:11:46;;;;;;;;;6.00;6.00;;;;;-147.17;100.00;49279.16;5053402;28;50963;-62
2021/10/23 02:14:12;;;;;;;;;5.50;5.50;;;;;-147.17;100.00;49283.09;5053785;28;51150;-62
2021/10/23 02:16:38;;;;;;;;;5.67;5.33;;;;;-147.17;100.00;49308.69;5043659;28;52068;-63
2021/10/23 02:19:03;;;;;;;;;5.67;5.67;;;;;-147.17;100.00;49265.41;5052937;28;51210;-62
2021/10/23 02:21:28;;;;;;;;;6.33;5.67;;;;;-147.17;100.00;49296.88;5053635;28;51108;-63
2021/10/23 02:23:54;;;;;;;;;6.25;5.25;;;;;-147.17;100.00;49292.94;5035534;28;51111;-63
2021/10/23 02:26:19;;;;;;;;;6.00;6.00;;;;;-147.17;100.00;49265.41;5059102;28;52737;-62
2021/10/23 02:28:44;;;;;;;;;6.00;5.25;;;;;-147.17;100.00;49318.53;5059498;28;51164;-62
2021/10/23 02:31:10;;;;;;;;;6.00;6.00;;;;;-147.17;100.00;49285.06;5059700;28;51044;-62
2021/10/23 02:33:35;;;;;;;;;6.00;5.00;;;;;-147.17;100.00;49283.09;5055984;28;50936;-62
2021/10/23 02:36:01;;;;;;;;;6.00;6.00;;;;;-147.17;100.00;49255.56;5053167;28;52197;-62
2021/10/23 02:38:26;;;;;;;;;5.00;5.00;;;;;-147.17;100.00;49261.47;5053351;28;50860;-62
2021/10/23 02:40:52;;;;;;;;;7.00;6.00;;;;;-147.17;100.00;49316.56;5053114;28;51129;-60
2021/10/23 02:43:17;;;;;;;;;6.33;5.67;;;;;-147.17;100.00;49229.97;5060229;28;50963;-60
2021/10/23 02:45:43;;;;;;;;;4.67;4.67;;;;;-147.17;100.00;49259.50;5073214;28;52821;-62
2021/10/23 02:48:08;;;;;;;;;4.33;4.00;;;;;-147.17;100.00;49269.34;5073320;28;50930;-62
2021/10/23 02:50:34;;;;;;;;;7.00;6.00;;;;;-147.17;100.00;49261.47;5073247;28;51052;-62
2021/10/23 02:52:59;;;;;;;;;5.50;5.00;;;;;-147.17;100.00;49287.03;5069274;28;51334;-63
2021/10/23 02:55:25;;;;;;;;;5.75;5.00;;;;;-147.17;100.00;49285.06;5064915;28;51090;-62
2021/10/23 02:57:51;;;;;;;;;8.00;5.00;;;;;-147.17;100.00;49285.06;5054529;28;51031;-63
2021/10/23 03:00:16;;;;;;;;;7.50;7.25;;;;;-147.17;100.00;49249.66;5055988;28;51418;-63
2021/10/23 03:02:42;;;;;;;;;5.00;5.00;;;;;-147.17;100.00;49257.53;5070648;28;50965;-64
2021/10/23 03:05:08;;;;;;;;;5.33;5.00;;;;;-147.17;100.00;49237.84;5061648;28;52168;-63
2021/10/23 03:07:33;;;;;;;;;7.00;6.00;;;;;-147.17;100.00;49275.22;5052880;28;51221;-63
2021/10/23 03:09:59;;;;;;;;;6.33;4.67;;;;;-147.17;100.00;49245.72;5059166;28;51815;-63
2021/10/23 03:12:27;;;;;;;;;7.67;5.33;;;;;-147.17;100.00;49229.97;5055126;28;51097;-63
2021/10/23 03:14:53;;;;;;;;;5.00;4.00;;;;;-147.17;100.00;49239.81;5045674;28;53961;-63
2021/10/23 03:17:18;;;;;;;;;8.25;6.25;;;;;-147.17;100.00;49239.81;5067346;28;51005;-63
2021/10/23 03:19:43;;;;;;;;;6.25;5.25;;;;;-147.17;100.00;49206.34;5052981;28;51177;-63
2021/10/23 03:22:09;;;;;;;;;6.67;6.67;;;;;-147.17;100.00;49241.78;5037170;28;51197;-63
2021/10/23 03:24:34;;;;;;;;;7.50;7.00;;;;;-147.17;100.00;49245.72;5067760;28;50876;-63
2021/10/23 03:26:59;;;;;;;;;6.00;5.67;;;;;-147.17;100.00;49257.53;5073365;28;50919;-63
2021/10/23 03:29:25;;;;;;;;;5.00;4.67;;;;;-147.17;100.00;49283.09;5065289;28;51532;-63
2021/10/23 03:31:50;;;;;;;;;5.00;5.00;;;;;-147.17;100.00;49269.34;5063314;28;51180;-63
2021/10/23 03:34:16;;;;;;;;;8.00;6.00;;;;;-147.17;100.00;49237.84;5055573;28;51645;-63
2021/10/23 03:36:41;;;;;;;;;6.00;6.00;;;;;-147.17;100.00;49212.25;5055901;28;51139;-63
2021/10/23 03:39:06;;;;;;;;;5.67;5.00;;;;;-147.17;100.00;49237.84;5038123;28;50974;-63
2021/10/23 03:41:32;;;;;;;;;7.33;5.67;;;;;-147.17;100.00;49226.03;5056856;28;51236;-63
2021/10/23 03:43:57;;;;;;;;;5.67;4.67;;;;;-147.17;100.00;49210.28;5076379;28;52827;-63
2021/10/23 03:46:23;;;;;;;;;6.00;5.00;;;;;-147.17;100.00;49208.31;5076510;28;51148;-63
2021/10/23 03:48:48;;;;;;;;;6.00;5.33;;;;;-147.17;100.00;49214.22;5064644;28;51176;-63
2021/10/23 03:51:13;;;;;;;;;5.50;5.00;;;;;-147.17;100.00;49206.34;5056060;28;51365;-63
2021/10/23 03:53:39;;;;;;;;;6.67;6.00;;;;;-147.17;100.00;49206.34;5047806;28;52445;-63
2021/10/23 03:56:04;;;;;;;;;7.50;7.00;;;;;-147.17;100.00;49249.66;5054476;28;51128;-63
2021/10/23 03:58:29;;;;;;;;;5.00;4.00;;;;;-147.17;100.00;49228.00;5037835;28;51615;-63
2021/10/23 04:00:55;;;;;;;;;4.00;4.00;;;;;-147.17;100.00;49251.63;5055992;28;51102;-63
2021/10/23 04:03:20;;;;;;;;;7.00;7.00;;;;;-147.17;100.00;49218.16;5059024;28;51171;-63
2021/10/23 04:05:46;;;;;;;;;4.67;4.67;;;;;-147.17;100.00;49210.28;5068173;28;51236;-63
2021/10/23 04:08:11;;;;;;;;;6.00;6.00;;;;;-147.17;100.00;49214.22;5076141;28;51627;-63
2021/10/23 04:10:37;;;;;;;;;5.00;4.00;;;;;-147.17;100.00;49167.00;5059048;28;51155;-63
2021/10/23 04:13:02;;;;;;;;;5.00;5.00;;;;;-147.17;100.00;49235.88;5055696;28;51304;-63
2021/10/23 04:15:29;;;;;;;;;5.33;5.33;;;;;-147.17;100.00;49204.38;5037124;28;50874;-63
2021/10/23 04:17:54;;;;;;;;;4.67;4.67;;;;;-147.17;100.00;49226.03;5072913;28;50963;-63
2021/10/23 04:20:19;;;;;;;;;8.00;7.00;;;;;-147.17;100.00;49202.41;5075750;28;51259;-64
2021/10/23 04:22:45;;;;;;;;;6.00;5.00;;;;;-147.17;100.00;49198.47;5073231;28;51000;-63
2021/10/23 04:25:10;;;;;;;;;6.00;4.00;;;;;-147.17;100.00;49216.19;5061999;28;51169;-63
2021/10/23 04:27:36;;;;;;;;;4.67;4.67;;;;;-147.17;100.00;49218.16;5075432;28;51426;-63
2021/10/23 04:30:01;;;;;;;;;7.00;5.00;;;;;-147.17;100.00;49222.09;5059441;28;51348;-63
2021/10/23 04:32:26;;;;;;;;;4.67;4.67;;;;;-147.17;100.00;49202.41;5054854;28;52086;-63
2021/10/23 04:34:52;;;;;;;;;6.33;5.67;;;;;-147.17;100.00;49194.53;5055143;28;51078;-63
2021/10/23 04:37:17;;;;;;;;;5.00;4.67;;;;;-147.17;100.00;49220.13;5055492;28;51055;-63
2021/10/23 04:39:42;;;;;;;;;4.33;4.00;;;;;-147.17;100.00;49202.41;5061225;28;51180;-63
2021/10/23 04:42:08;;;;;;;;;7.00;6.00;;;;;-147.17;100.00;49231.94;5074455;28;51810;-63
2021/10/23 04:44:33;;;;;;;;;5.00;4.00;;;;;-147.17;100.00;49218.16;5075326;28;51188;-63
2021/10/23 04:46:59;;;;;;;;;4.33;4.00;;;;;-147.17;100.00;49235.88;5074608;28;51208;-63
2021/10/23 04:49:24;;;;;;;;;5.00;4.00;;;;;-147.17;100.00;49194.53;5074446;28;50957;-63
2021/10/23 04:51:50;;;;;;;;;4.00;3.33;;;;;-147.17;100.00;49204.38;5066167;28;52365;-63
2021/10/23 04:54:15;;;;;;;;;5.33;5.33;;;;;-147.17;100.00;49216.19;5068156;28;51142;-63
2021/10/23 04:56:41;;;;;;;;;4.67;3.00;;;;;-147.17;100.00;49186.69;5054830;28;51044;-63
2021/10/23 04:59:06;;;;;;;;;4.00;4.00;;;;;-147.17;100.00;49210.28;5067507;28;51104;-63
2021/10/23 05:01:31;;;;;;;;;5.00;5.00;;;;;-147.17;100.00;49186.69;5061134;28;51614;-63
2021/10/23 05:03:57;;;;;;;;;5.75;5.00;;;;;-147.17;100.00;49188.66;5054945;28;51012;-63
2021/10/23 05:06:22;;;;;;;;;5.00;5.00;;;;;-147.17;100.00;49192.56;5036974;28;51495;-63
2021/10/23 05:08:47;;;;;;;;;5.75;5.25;;;;;-147.17;100.00;49176.84;5051158;28;50994;-63
2021/10/23 05:11:13;;;;;;;;;6.75;6.00;;;;;-147.17;100.00;49192.56;5072742;28;51156;-63
2021/10/23 05:13:38;;;;;;;;;7.00;6.67;;;;;-147.17;100.00;49196.50;5056591;28;50919;-63
2021/10/23 05:16:04;;;;;;;;;6.50;5.00;;;;;-147.17;100.00;49214.22;5056092;28;51104;-63
2021/10/23 05:18:29;;;;;;;;;4.33;4.33;;;;;-147.17;100.00;49190.63;5069017;28;51087;-63
2021/10/23 05:20:55;;;;;;;;;4.00;4.00;;;;;-147.17;100.00;49202.41;5074075;28;50894;-63
2021/10/23 05:23:20;;;;;;;;;4.67;4.00;;;;;-147.17;100.00;49194.53;5074041;28;51042;-63
2021/10/23 05:25:46;;;;;;;;;5.00;5.00;;;;;-147.17;100.00;49226.03;5074352;28;51762;-63
2021/10/23 05:28:12;;;;;;;;;5.33;5.00;;;;;-147.17;100.00;49208.31;5073675;28;50978;-63
2021/10/23 05:30:38;;;;;;;;;5.00;5.00;;;;;-147.17;100.00;49216.19;5036601;28;52017;-63
2021/10/23 05:33:03;;;;;;;;;5.33;5.00;;;;;-147.17;100.00;49202.41;5070956;28;51031;-63
2021/10/23 05:35:29;;;;;;;;;6.33;4.00;;;;;-147.17;100.00;49172.91;5065486;28;51310;-63
2021/10/23 05:37:54;;;;;;;;;5.00;5.00;;;;;-147.17;100.00;49186.69;5069342;28;51108;-63
2021/10/23 05:40:20;;;;;;;;;4.00;3.75;;;;;-147.17;100.00;49159.13;5074829;28;51080;-63
2021/10/23 05:42:45;;;;;;;;;6.75;6.00;;;;;-147.17;100.00;49178.81;5059002;28;51030;-65
2021/10/23 05:45:11;;;;;;;;;5.67;5.00;;;;;-147.17;100.00;49147.31;5036869;28;50929;-63
2021/10/23 05:47:36;;;;;;;;;6.25;5.00;;;;;-147.17;100.00;49186.69;5054365;28;51056;-63
2021/10/23 05:50:03;;;;;;;;;4.00;4.00;;;;;-147.17;100.00;49202.41;5053700;28;51929;-63
2021/10/23 05:52:28;;;;;;;;;7.00;5.67;;;;;-147.17;100.00;49194.53;5061212;28;50889;-63
2021/10/23 05:54:54;;;;;;;;;4.33;4.00;;;;;-147.17;100.00;49182.75;5067922;28;51221;-63
2021/10/23 05:57:19;;;;;;;;;5.00;5.00;;;;;-147.17;100.00;49155.19;5055143;28;51319;-64
2021/10/23 05:59:46;;;;;;;;;5.00;5.00;;;;;-147.17;100.00;49147.31;5055134;28;51934;-63
2021/10/23 06:02:25;;;;;;;;;5.00;5.00;;;;;-147.17;100.00;49184.72;5055938;28;51370;-63
2021/10/23 06:04:54;;;;;;;;;11.25;11.00;;;;;-147.17;100.00;49210.28;5053952;28;51245;-63
2021/10/23 06:07:20;;;;;;;;;6.00;6.00;;;;;-147.17;100.00;49174.88;5054131;28;51182;-63
2021/10/23 06:09:47;;;;;;;;;5.00;5.00;;;;;-147.17;100.00;49168.97;5057100;28;51058;-63
2021/10/23 06:12:13;;;;;;;;;5.33;5.33;;;;;-147.17;100.00;49174.88;5064635;28;51245;-63
2021/10/23 06:14:38;;;;;;;;;5.00;4.50;;;;;-147.17;100.00;49186.69;5063102;28;51170;-63
2021/10/23 06:17:05;;;;;;;;;4.00;4.00;;;;;-147.17;100.00;49178.81;5053460;28;50960;-63
2021/10/23 06:19:34;;;;;;;;;4.00;4.00;;;;;-147.17;100.00;49168.97;5061145;28;51884;-63
2021/10/23 06:22:00;;;;;;;;;7.00;5.67;;;;;-147.17;100.00;49198.47;5073778;28;51043;-63
2021/10/23 06:24:25;;;;;;;;;5.33;4.67;;;;;-147.17;100.00;49214.22;5073738;28;51179;-63
2021/10/23 06:26:51;;;;;;;;;7.00;6.33;;;;;-147.17;100.00;49151.25;5053643;28;51419;-63
2021/10/23 06:29:16;;;;;;;;;7.33;5.00;;;;;-147.17;100.00;49153.22;5055654;28;51679;-63
2021/10/23 06:31:42;;;;;;;;;3.33;3.33;;;;;-147.17;100.00;49186.69;5053164;28;51011;-63
2021/10/23 06:34:07;;;;;;;;;6.50;6.00;;;;;-147.17;100.00;49168.97;5053308;28;51535;-63
2021/10/23 06:36:33;;;;;;;;;3.00;3.00;;;;;-147.17;100.00;49190.63;5053352;28;51379;-63
2021/10/23 06:38:58;;;;;;;;;4.00;4.00;;;;;-147.17;100.00;49159.13;5052936;28;51973;-63
2021/10/23 06:41:24;;;;;;;;;5.00;4.67;;;;;-147.17;100.00;49159.13;5061284;28;51079;-63
2021/10/23 06:43:49;;;;;;;;;6.00;5.33;;;;;-147.17;100.00;49214.22;5073562;28;51530;-63
2021/10/23 06:46:14;;;;;;;;;5.00;5.00;;;;;-147.17;100.00;49194.53;5068346;28;51314;-63
2021/10/23 06:48:40;;;;;;;;;5.00;5.00;;;;;-147.17;100.00;49180.78;5052761;28;51952;-63
2021/10/23 06:51:05;;;;;;;;;5.00;5.00;;;;;-147.17;100.00;49170.94;5066553;28;51053;-63
2021/10/23 06:53:30;;;;;;;;;7.33;7.33;;;;;-147.17;100.00;49131.56;5062429;28;51019;-64
2021/10/23 06:55:56;;;;;;;;;5.00;5.00;;;;;-147.17;100.00;49176.84;5069522;28;51207;-63
2021/10/23 06:58:21;;;;;;;;;5.67;5.00;;;;;-147.17;100.00;49174.88;5052501;28;50943;-63
2021/10/23 07:00:46;;;;;;;;;7.67;6.33;;;;;-147.17;100.00;49167.00;5052750;28;50936;-63
2021/10/23 07:03:12;;;;;;;;;6.67;6.67;;;;;-147.17;100.00;49168.97;5038121;28;51371;-63
2021/10/23 07:05:37;;;;;;;;;5.75;5.25;;;;;-147.17;100.00;49151.25;5059789;28;51076;-63
2021/10/23 07:08:03;;;;;;;;;5.00;5.00;;;;;-147.17;100.00;49165.03;5053729;28;50938;-63
2021/10/23 07:10:28;;;;;;;;;7.33;7.33;;;;;-147.17;100.00;49115.81;5058118;28;50886;-63
2021/10/23 07:12:54;;;;;;;;;7.00;7.00;;;;;-147.17;100.00;49186.69;5057313;28;50987;-63
2021/10/23 07:15:19;;;;;;;;;7.00;7.00;;;;;-147.17;100.00;49170.94;5060616;28;51237;-63
2021/10/23 07:17:44;;;;;;;;;5.00;5.00;;;;;-147.17;100.00;49135.50;5071874;28;51800;-63
2021/10/23 07:20:11;;;;;;;;;5.00;4.67;;;;;-147.17;100.00;49153.22;5070725;28;50982;-64
2021/10/23 07:22:36;;;;;;;;;5.00;5.00;;;;;-147.17;100.00;49149.28;5060936;28;51162;-64
2021/10/23 07:25:02;;;;;;;;;5.00;4.00;;;;;-147.17;100.00;49155.19;5072179;28;51159;-63
2021/10/23 07:27:28;;;;;;;;;6.00;4.33;;;;;-147.17;100.00;49141.41;5071648;28;53078;-64
2021/10/23 07:29:53;;;;;;;;;4.33;4.33;;;;;-147.17;100.00;49135.50;5058339;28;51095;-63
2021/10/23 07:32:19;;;;;;;;;6.00;6.00;;;;;-147.17;100.00;49167.00;5052559;28;51090;-64
2021/10/23 07:34:44;;;;;;;;;5.00;4.00;;;;;-147.17;100.00;49147.31;5052761;28;51137;-64
2021/10/23 07:37:10;;;;;;;;;6.00;5.33;;;;;-147.17;100.00;49137.47;5058609;28;51335;-63
2021/10/23 07:39:36;;;;;;;;;6.67;5.67;;;;;-147.17;100.00;49106.00;5070140;28;51032;-66
2021/10/23 07:42:02;;;;;;;;;6.33;6.33;;;;;-147.17;100.00;49123.69;5057381;28;51613;-66
2021/10/23 07:44:28;;;;;;;;;7.33;6.00;;;;;-147.17;100.00;49104.03;5034902;28;51265;-66
2021/10/23 07:46:53;;;;;;;;;6.00;5.00;;;;;-147.17;100.00;49119.75;5052178;28;51106;-66
2021/10/23 07:49:19;;;;;;;;;10.00;9.25;;;;;-147.17;100.00;49098.13;5039543;28;51247;-66
2021/10/23 07:51:47;;;;;;;;;7.00;7.00;;;;;-147.17;100.00;49123.69;5044540;28;51422;-66
2021/10/23 07:54:12;;;;;;;;;7.67;7.33;;;;;-147.17;100.00;49082.38;5069784;28;51022;-65
2021/10/23 07:56:39;;;;;;;;;7.50;7.25;;;;;-147.17;100.00;49094.19;5069710;28;51672;-64
2021/10/23 07:59:04;;;;;;;;;7.67;7.00;;;;;-147.17;100.00;49090.25;5036149;28;51298;-66
2021/10/23 08:01:30;;;;;;;;;9.00;8.00;;;;;-147.17;100.00;49094.19;5067348;28;51855;-66
2021/10/23 08:03:55;;;;;;;;;8.00;7.00;;;;;-147.17;100.00;49076.47;5062618;28;51263;-65
2021/10/23 08:06:21;;;;;;;;;6.00;5.67;;;;;-147.17;100.00;49066.63;5064004;28;51775;-65
2021/10/23 08:08:47;;;;;;;;;6.33;5.67;;;;;-147.17;100.00;49078.44;5062917;28;51062;-64
2021/10/23 08:11:13;;;;;;;;;5.00;5.00;;;;;-147.17;100.00;49044.97;5059197;28;51297;-63
2021/10/23 08:13:38;;;;;;;;;6.00;6.00;;;;;-147.17;100.00;49064.66;5063635;28;51331;-64
2021/10/23 08:16:04;;;;;;;;;7.33;7.00;;;;;-147.17;100.00;49044.97;5070430;28;52842;-65
2021/10/23 08:18:29;;;;;;;;;2.33;2.33;;;;;-147.17;100.00;49056.78;5065784;28;51204;-64
2021/10/23 08:20:55;;;;;;;;;7.00;6.00;;;;;-147.17;100.00;49056.78;5047968;28;51107;-65
2021/10/23 08:23:22;;;;;;;;;6.67;6.67;;;;;-147.17;100.00;49037.13;5060576;28;51407;-65
2021/10/23 08:25:47;;;;;;;;;5.33;5.33;;;;;-147.17;100.00;49003.66;5053674;28;54074;-64
2021/10/23 08:28:12;;;;;;;;;4.67;4.67;;;;;-147.17;100.00;48974.13;5068557;27;51168;-65
2021/10/23 08:30:39;;;;;;;;;4.33;4.00;;;;;-147.17;100.00;49009.56;5062423;28;51014;-65
2021/10/23 08:33:05;;;;;;;;;5.00;5.00;;;;;-147.17;100.00;48970.19;5058636;28;51402;-65
2021/10/23 08:35:30;;;;;;;;;8.00;6.00;;;;;-147.17;100.00;48989.88;5063287;28;51911;-65
2021/10/23 08:37:56;;;;;;;;;8.00;7.33;;;;;-147.17;100.00;48974.13;5072748;28;51098;-66
2021/10/23 08:40:22;;;;;;;;;6.67;6.67;;;;;-147.17;100.00;48926.91;5065088;27;52551;-66
2021/10/23 08:42:49;;;;;;;;;12.25;10.25;;;;;-147.17;100.00;48940.69;5066861;28;51469;-66
2021/10/23 08:45:15;;;;;;;;;6.00;6.00;;;;;-147.17;100.00;48907.22;5066383;27;52120;-66
2021/10/23 08:47:43;;;;;;;;;7.67;7.67;;;;;-147.17;100.00;48954.47;5049890;28;52480;-66
2021/10/23 08:50:15;;;;;;;;;10.00;9.33;;;;;-147.17;100.00;48932.81;5066765;28;51239;-67
2021/10/23 08:52:45;;;;;;;;;33.50;32.00;;;;;-147.17;100.00;48881.66;5061980;28;51072;-66
2021/10/23 08:55:11;;;;;;;;;6.67;6.67;;;;;-147.17;100.00;48926.91;5065883;28;51057;-67
2021/10/23 08:57:36;;;;;;;;;7.00;7.00;;;;;-147.17;100.00;48875.75;5063521;28;51070;-67
2021/10/23 09:00:05;;;;;;;;;9.67;9.00;;;;;-147.17;100.00;48893.47;5068186;28;51084;-66
2021/10/23 09:02:30;;;;;;;;;8.00;8.00;;;;;-147.17;100.00;48844.25;5050262;28;51188;-67
2021/10/23 09:04:57;;;;;;;;;11.00;9.25;;;;;-147.17;100.00;48871.81;5063134;28;53113;-66
2021/10/23 09:07:23;;;;;;;;;8.00;7.50;;;;;-147.17;100.00;48832.47;5063857;28;51166;-66
2021/10/23 09:09:52;;;;;;;;;9.75;9.00;;;;;-147.17;100.00;48808.84;5061079;28;51001;-66
2021/10/23 09:12:24;;;;;;;;;11.50;11.50;;;;;-147.17;100.00;48757.69;5066148;28;51144;-66
2021/10/23 09:15:03;;;;;;;;;11.00;11.00;;;;;-147.17;100.00;48755.72;5071935;28;51922;-67
2021/10/23 09:17:30;;;;;;;;;10.00;9.33;;;;;-147.17;100.00;48726.19;5064757;27;50985;-68
2021/10/23 09:19:58;;;;;;;;;9.67;8.00;;;;;-147.17;100.00;48690.78;5072498;28;51171;-69
2021/10/23 09:22:34;;;;;;;;;11.00;10.00;;;;;-147.17;100.00;48698.66;5062189;27;51143;-68
2021/10/23 09:25:22;;;;;;;;;8.00;8.00;;;;;-147.17;100.00;48651.41;5059046;28;53123;-64
2021/10/23 09:28:11;;;;;;;;;10.00;8.67;;;;;-147.17;100.00;48594.34;5069203;28;51059;-63
2021/10/23 09:30:45;;;;;;;;;7.00;7.00;;;;;-147.17;100.00;48584.53;5067523;27;51111;-62
2021/10/23 09:33:23;;;;;;;;;6.00;6.00;;;;;-147.17;100.00;48537.28;5066402;28;51281;-62
2021/10/23 09:35:55;;;;;;;;;6.33;6.00;;;;;-147.17;100.00;48529.44;5072341;28;51943;-62
2021/10/23 09:38:23;;;;;;;;;8.00;7.00;;;;;-147.17;100.00;48541.22;5063761;28;51390;-63
2021/10/23 09:40:51;;;;;;;;;7.00;7.00;;;;;-147.17;100.00;48476.31;5070439;28;50961;-63
2021/10/23 09:43:18;;;;;;;;;5.67;5.33;;;;;-147.17;100.00;48486.13;5057928;28;51133;-66
2021/10/23 09:46:01;;;;;;;;;7.00;7.00;;;;;-147.17;100.00;48474.34;5066568;28;52367;-68
2021/10/23 09:48:37;;;;;;;;;5.67;5.33;;;;;-147.17;100.00;48454.66;5062004;28;51134;-68
2021/10/23 09:51:11;;;;;;;;;6.33;5.67;;;;;-147.17;100.00;48399.56;5047661;28;51119;-67
2021/10/23 09:53:37;;;;;;;;;7.67;7.00;;;;;-147.17;100.00;48379.88;5062207;28;51299;-67
2021/10/23 09:56:06;;;;;;;;;6.33;4.67;;;;;-147.17;100.00;48305.13;5058387;28;51188;-68
2021/10/23 09:58:32;;;;;;;;;12.00;9.67;;;;;-147.17;100.00;48419.25;5055191;28;51272;-69
2021/10/23 10:00:58;;;;;;;;;8.67;8.00;;;;;-147.17;100.00;48381.84;5068512;28;51043;-68
2021/10/23 10:03:25;;;;;;;;;7.67;7.67;;;;;-147.17;100.00;48257.91;5053145;28;51708;-68
2021/10/23 10:05:57;;;;;;;;;5.33;4.33;;;;;-147.17;100.00;48242.16;5052339;28;52014;-69
2021/10/23 10:08:23;;;;;;;;;6.00;6.00;;;;;-147.17;100.00;48185.09;5053077;28;51059;-68
2021/10/23 10:10:50;;;;;;;;;5.67;5.67;;;;;-147.17;100.00;48084.75;5034716;28;51142;-67
2021/10/23 10:13:18;;;;;;;;;5.67;5.33;;;;;-147.17;100.00;48124.13;5060855;28;51340;-66
2021/10/23 10:15:45;;;;;;;;;9.67;7.67;;;;;-147.17;100.00;48167.41;5065461;28;52090;-66
2021/10/23 10:18:14;;;;;;;;;8.00;8.00;;;;;-147.17;100.00;48291.34;5067088;28;51054;-65
2021/10/23 10:20:49;;;;;;;;;10.67;9.00;;;;;-147.17;100.00;48269.69;5054588;28;51243;-68
2021/10/23 10:23:19;;;;;;;;;11.67;11.67;;;;;-147.17;100.00;48311.03;5051992;28;51377;-67
2021/10/23 10:26:11;;;;;;;;;11.00;10.33;;;;;-147.17;100.00;48313.00;5064946;28;51890;-67
2021/10/23 10:28:38;;;;;;;;;11.33;10.67;;;;;-147.17;100.00;48348.41;5058021;28;51020;-67
2021/10/23 10:31:03;;;;;;;;;10.00;10.00;;;;;-147.17;100.00;48311.03;5046830;28;51230;-67
2021/10/23 10:33:43;;;;;;;;;11.33;9.67;;;;;-147.17;100.00;48114.28;5071908;28;51121;-66
2021/10/23 10:39:25;;;;;;;;;11.00;9.67;;;;;-147.17;100.00;47400.16;5032768;28;52580;-67
2021/10/23 10:45:24;;;;;;;;;13.00;11.00;;;;;-147.17;100.00;46749.09;5055234;28;50948;-67
2021/10/23 10:48:13;;;;;;;;;14.33;12.33;;;;;-147.17;100.00;46621.28;5067074;28;51891;-68
2021/10/23 10:50:40;;;;;;;;;9.00;9.00;;;;;-147.17;100.00;46770.75;5072410;28;50927;-69
2021/10/23 10:53:33;;;;;;;;;9.33;9.00;;;;;-147.17;100.00;46959.56;5066040;28;51165;-69
2021/10/23 10:55:58;;;;;;;;;9.33;8.33;;;;;-147.17;100.00;47175.91;5059574;28;51179;-70
2021/10/23 10:58:56;;;;;;;;;8.00;7.00;;;;;-147.17;100.00;47238.84;5053008;28;51225;-68
2021/10/23 11:01:25;;;;;;;;;11.00;11.00;;;;;-147.17;100.00;47262.47;5068171;28;51112;-68
2021/10/23 11:03:56;;;;;;;;;9.00;9.00;;;;;-147.17;100.00;47203.44;5045183;28;51163;-67
2021/10/23 11:06:30;;;;;;;;;10.00;9.33;;;;;-147.17;100.00;47303.78;5064627;28;51320;-66
2021/10/23 11:09:30;;;;;;;;;8.67;7.67;;;;;-147.17;100.00;47295.91;5053156;28;51860;-67
2021/10/23 11:11:57;;;;;;;;;7.67;7.67;;;;;-147.17;100.00;47262.47;5051443;28;51174;-68